sensor_id;sensor_type;location;lat;lon;timestamp;P1;durP1;ratioP1;P2;durP2;ratioP2
42094;SDS011;27753;55.724;37.612;2023-04-20T00:00:28;11.70;;;7.13;;
42094;SDS011;27753;55.724;37.612;2023-04-20T00:02:58;12.05;;;7.15;;
42094;SDS011;27753;55.724;37.612;2023-04-20T00:05:24;17.77;;;8.18;;
42094;SDS011;27753;55.724;37.612;2023-04-20T00:07:51;14.18;;;7.03;;
42094;SDS011;27753;55.724;37.612;2023-04-20T00:10:18;15.40;;;7.05;;
42094;SDS011;27753;55.724;37.612;2023-04-20T00:12:44;12.88;;;7.22;;
42094;SDS011;27753;55.724;37.612;2023-04-20T00:15:10;12.75;;;7.25;;
42094;SDS011;27753;55.724;37.612;2023-04-20T00:17:36;13.68;;;7.93;;
42094;SDS011;27753;55.724;37.612;2023-04-20T00:20:03;11.18;;;7.55;;
42094;SDS011;27753;55.724;37.612;2023-04-20T00:22:30;13.55;;;7.80;;
42094;SDS011;27753;55.724;37.612;2023-04-20T00:25:00;14.65;;;7.95;;
42094;SDS011;27753;55.724;37.612;2023-04-20T00:27:26;12.00;;;6.82;;
42094;SDS011;27753;55.724;37.612;2023-04-20T00:29:52;11.35;;;7.72;;
42094;SDS011;27753;55.724;37.612;2023-04-20T00:32:18;16.42;;;7.25;;
42094;SDS011;27753;55.724;37.612;2023-04-20T00:34:44;13.57;;;8.40;;
42094;SDS011;27753;55.724;37.612;2023-04-20T00:37:10;14.93;;;7.63;;
42094;SDS011;27753;55.724;37.612;2023-04-20T00:39:36;13.32;;;7.80;;
42094;SDS011;27753;55.724;37.612;2023-04-20T00:42:05;14.75;;;8.30;;
42094;SDS011;27753;55.724;37.612;2023-04-20T00:44:31;16.45;;;8.20;;
42094;SDS011;27753;55.724;37.612;2023-04-20T00:46:58;11.77;;;7.30;;
42094;SDS011;27753;55.724;37.612;2023-04-20T00:49:25;12.48;;;7.50;;
42094;SDS011;27753;55.724;37.612;2023-04-20T00:51:54;14.75;;;7.90;;
42094;SDS011;27753;55.724;37.612;2023-04-20T00:54:22;10.90;;;7.75;;
42094;SDS011;27753;55.724;37.612;2023-04-20T00:56:49;13.48;;;8.57;;
42094;SDS011;27753;55.724;37.612;2023-04-20T00:59:16;16.02;;;8.15;;
42094;SDS011;27753;55.724;37.612;2023-04-20T01:01:42;11.55;;;8.38;;
42094;SDS011;27753;55.724;37.612;2023-04-20T01:04:08;17.85;;;9.32;;
42094;SDS011;27753;55.724;37.612;2023-04-20T01:06:34;12.60;;;7.78;;
42094;SDS011;27753;55.724;37.612;2023-04-20T01:09:00;10.82;;;8.15;;
42094;SDS011;27753;55.724;37.612;2023-04-20T01:13:53;11.93;;;7.75;;
42094;SDS011;27753;55.724;37.612;2023-04-20T01:16:19;10.52;;;7.15;;
42094;SDS011;27753;55.724;37.612;2023-04-20T01:18:47;8.88;;;7.32;;
42094;SDS011;27753;55.724;37.612;2023-04-20T01:21:15;14.20;;;7.47;;
42094;SDS011;27753;55.724;37.612;2023-04-20T01:23:42;11.23;;;7.38;;
42094;SDS011;27753;55.724;37.612;2023-04-20T01:26:09;11.57;;;7.13;;
42094;SDS011;27753;55.724;37.612;2023-04-20T01:28:36;10.55;;;6.75;;
42094;SDS011;27753;55.724;37.612;2023-04-20T01:31:06;16.77;;;7.15;;
42094;SDS011;27753;55.724;37.612;2023-04-20T01:33:32;15.90;;;7.20;;
42094;SDS011;27753;55.724;37.612;2023-04-20T01:35:58;10.27;;;6.35;;
42094;SDS011;27753;55.724;37.612;2023-04-20T01:38:25;13.65;;;6.93;;
42094;SDS011;27753;55.724;37.612;2023-04-20T01:40:51;9.38;;;6.32;;
42094;SDS011;27753;55.724;37.612;2023-04-20T01:43:21;12.30;;;7.25;;
42094;SDS011;27753;55.724;37.612;2023-04-20T01:45:47;10.95;;;7.13;;
42094;SDS011;27753;55.724;37.612;2023-04-20T01:48:13;13.20;;;7.70;;
42094;SDS011;27753;55.724;37.612;2023-04-20T01:50:39;15.63;;;7.70;;
42094;SDS011;27753;55.724;37.612;2023-04-20T01:53:07;11.15;;;7.60;;
42094;SDS011;27753;55.724;37.612;2023-04-20T01:55:33;17.75;;;8.52;;
42094;SDS011;27753;55.724;37.612;2023-04-20T01:58:00;14.30;;;8.50;;
42094;SDS011;27753;55.724;37.612;2023-04-20T02:00:25;18.08;;;8.27;;
42094;SDS011;27753;55.724;37.612;2023-04-20T02:02:51;21.45;;;8.52;;
42094;SDS011;27753;55.724;37.612;2023-04-20T02:05:17;11.48;;;7.50;;
42094;SDS011;27753;55.724;37.612;2023-04-20T02:07:43;18.90;;;8.05;;
42094;SDS011;27753;55.724;37.612;2023-04-20T02:10:09;10.38;;;7.90;;
42094;SDS011;27753;55.724;37.612;2023-04-20T02:12:35;14.27;;;8.50;;
42094;SDS011;27753;55.724;37.612;2023-04-20T02:15:01;12.63;;;7.70;;
42094;SDS011;27753;55.724;37.612;2023-04-20T02:17:29;18.35;;;8.18;;
42094;SDS011;27753;55.724;37.612;2023-04-20T02:22:22;13.55;;;7.57;;
42094;SDS011;27753;55.724;37.612;2023-04-20T02:24:48;13.73;;;7.47;;
42094;SDS011;27753;55.724;37.612;2023-04-20T02:27:14;12.10;;;7.65;;
42094;SDS011;27753;55.724;37.612;2023-04-20T02:29:40;19.40;;;7.68;;
42094;SDS011;27753;55.724;37.612;2023-04-20T02:32:05;14.57;;;7.93;;
42094;SDS011;27753;55.724;37.612;2023-04-20T02:34:32;12.38;;;8.10;;
42094;SDS011;27753;55.724;37.612;2023-04-20T02:36:58;11.27;;;7.40;;
42094;SDS011;27753;55.724;37.612;2023-04-20T02:39:23;14.23;;;7.20;;
42094;SDS011;27753;55.724;37.612;2023-04-20T02:41:50;11.23;;;7.47;;
42094;SDS011;27753;55.724;37.612;2023-04-20T02:44:18;12.32;;;7.97;;
42094;SDS011;27753;55.724;37.612;2023-04-20T02:46:43;16.48;;;7.57;;
42094;SDS011;27753;55.724;37.612;2023-04-20T02:49:09;14.75;;;6.50;;
42094;SDS011;27753;55.724;37.612;2023-04-20T02:51:35;12.93;;;7.20;;
42094;SDS011;27753;55.724;37.612;2023-04-20T02:54:01;13.90;;;6.13;;
42094;SDS011;27753;55.724;37.612;2023-04-20T02:56:27;10.35;;;6.95;;
42094;SDS011;27753;55.724;37.612;2023-04-20T02:58:53;25.80;;;7.38;;
42094;SDS011;27753;55.724;37.612;2023-04-20T03:01:19;17.75;;;8.57;;
42094;SDS011;27753;55.724;37.612;2023-04-20T03:03:45;13.32;;;7.43;;
42094;SDS011;27753;55.724;37.612;2023-04-20T03:06:11;13.57;;;8.23;;
42094;SDS011;27753;55.724;37.612;2023-04-20T03:08:37;11.77;;;7.20;;
42094;SDS011;27753;55.724;37.612;2023-04-20T03:11:03;11.60;;;7.38;;
42094;SDS011;27753;55.724;37.612;2023-04-20T03:13:29;13.18;;;7.30;;
42094;SDS011;27753;55.724;37.612;2023-04-20T03:15:55;12.07;;;7.57;;
42094;SDS011;27753;55.724;37.612;2023-04-20T03:18:20;10.93;;;7.78;;
42094;SDS011;27753;55.724;37.612;2023-04-20T03:20:46;13.45;;;7.32;;
42094;SDS011;27753;55.724;37.612;2023-04-20T03:23:12;16.45;;;8.05;;
42094;SDS011;27753;55.724;37.612;2023-04-20T03:25:38;16.33;;;8.27;;
42094;SDS011;27753;55.724;37.612;2023-04-20T03:28:04;12.05;;;7.40;;
42094;SDS011;27753;55.724;37.612;2023-04-20T03:30:30;15.68;;;9.07;;
42094;SDS011;27753;55.724;37.612;2023-04-20T03:32:56;12.13;;;7.40;;
42094;SDS011;27753;55.724;37.612;2023-04-20T03:35:22;11.32;;;7.53;;
42094;SDS011;27753;55.724;37.612;2023-04-20T03:37:48;13.93;;;7.60;;
42094;SDS011;27753;55.724;37.612;2023-04-20T03:40:13;11.90;;;7.80;;
42094;SDS011;27753;55.724;37.612;2023-04-20T03:42:39;10.43;;;7.53;;
42094;SDS011;27753;55.724;37.612;2023-04-20T03:45:06;12.52;;;7.00;;
42094;SDS011;27753;55.724;37.612;2023-04-20T03:47:32;16.05;;;7.88;;
42094;SDS011;27753;55.724;37.612;2023-04-20T03:49:58;14.02;;;8.23;;
42094;SDS011;27753;55.724;37.612;2023-04-20T03:52:24;13.82;;;8.07;;
42094;SDS011;27753;55.724;37.612;2023-04-20T03:54:50;17.70;;;8.40;;
42094;SDS011;27753;55.724;37.612;2023-04-20T03:57:15;19.42;;;10.30;;
42094;SDS011;27753;55.724;37.612;2023-04-20T03:59:41;13.35;;;9.05;;
42094;SDS011;27753;55.724;37.612;2023-04-20T04:02:07;19.55;;;10.45;;
42094;SDS011;27753;55.724;37.612;2023-04-20T04:04:35;25.40;;;11.35;;
42094;SDS011;27753;55.724;37.612;2023-04-20T04:07:00;18.35;;;11.30;;
42094;SDS011;27753;55.724;37.612;2023-04-20T04:09:26;12.00;;;8.23;;
42094;SDS011;27753;55.724;37.612;2023-04-20T04:11:52;16.30;;;10.40;;
42094;SDS011;27753;55.724;37.612;2023-04-20T04:14:18;14.57;;;9.40;;
42094;SDS011;27753;55.724;37.612;2023-04-20T04:16:44;17.20;;;9.27;;
42094;SDS011;27753;55.724;37.612;2023-04-20T04:19:10;17.98;;;10.05;;
42094;SDS011;27753;55.724;37.612;2023-04-20T04:21:36;25.88;;;11.85;;
42094;SDS011;27753;55.724;37.612;2023-04-20T04:24:02;23.15;;;9.68;;
42094;SDS011;27753;55.724;37.612;2023-04-20T04:26:28;15.73;;;10.23;;
42094;SDS011;27753;55.724;37.612;2023-04-20T04:28:55;14.60;;;9.15;;
42094;SDS011;27753;55.724;37.612;2023-04-20T04:31:22;18.05;;;9.95;;
42094;SDS011;27753;55.724;37.612;2023-04-20T04:33:48;19.23;;;10.18;;
42094;SDS011;27753;55.724;37.612;2023-04-20T04:36:14;15.10;;;9.45;;
42094;SDS011;27753;55.724;37.612;2023-04-20T04:38:40;13.23;;;9.23;;
42094;SDS011;27753;55.724;37.612;2023-04-20T04:41:09;14.82;;;9.00;;
42094;SDS011;27753;55.724;37.612;2023-04-20T04:43:39;19.58;;;8.70;;
42094;SDS011;27753;55.724;37.612;2023-04-20T04:46:09;14.45;;;9.55;;
42094;SDS011;27753;55.724;37.612;2023-04-20T04:48:36;12.70;;;8.70;;
42094;SDS011;27753;55.724;37.612;2023-04-20T04:51:04;15.85;;;10.13;;
42094;SDS011;27753;55.724;37.612;2023-04-20T04:53:31;12.63;;;9.52;;
42094;SDS011;27753;55.724;37.612;2023-04-20T04:55:56;17.30;;;10.10;;
42094;SDS011;27753;55.724;37.612;2023-04-20T04:58:22;16.70;;;8.63;;
42094;SDS011;27753;55.724;37.612;2023-04-20T05:00:49;14.85;;;10.35;;
42094;SDS011;27753;55.724;37.612;2023-04-20T05:03:15;14.30;;;9.00;;
42094;SDS011;27753;55.724;37.612;2023-04-20T05:05:41;14.27;;;9.93;;
42094;SDS011;27753;55.724;37.612;2023-04-20T05:08:07;17.33;;;10.50;;
42094;SDS011;27753;55.724;37.612;2023-04-20T05:10:33;12.80;;;10.23;;
42094;SDS011;27753;55.724;37.612;2023-04-20T05:12:58;24.98;;;10.50;;
42094;SDS011;27753;55.724;37.612;2023-04-20T05:15:25;18.25;;;9.88;;
42094;SDS011;27753;55.724;37.612;2023-04-20T05:17:51;15.00;;;9.35;;
42094;SDS011;27753;55.724;37.612;2023-04-20T05:20:17;18.48;;;9.52;;
42094;SDS011;27753;55.724;37.612;2023-04-20T05:22:43;14.30;;;10.20;;
42094;SDS011;27753;55.724;37.612;2023-04-20T05:25:09;18.15;;;9.88;;
42094;SDS011;27753;55.724;37.612;2023-04-20T05:27:35;14.20;;;8.88;;
42094;SDS011;27753;55.724;37.612;2023-04-20T05:30:02;15.38;;;9.55;;
42094;SDS011;27753;55.724;37.612;2023-04-20T05:32:28;13.70;;;8.73;;
42094;SDS011;27753;55.724;37.612;2023-04-20T05:34:54;18.70;;;9.68;;
42094;SDS011;27753;55.724;37.612;2023-04-20T05:37:24;16.05;;;7.70;;
42094;SDS011;27753;55.724;37.612;2023-04-20T05:39:50;17.88;;;9.27;;
42094;SDS011;27753;55.724;37.612;2023-04-20T05:42:15;13.63;;;8.65;;
42094;SDS011;27753;55.724;37.612;2023-04-20T05:44:41;18.38;;;9.43;;
42094;SDS011;27753;55.724;37.612;2023-04-20T05:47:08;19.85;;;9.02;;
42094;SDS011;27753;55.724;37.612;2023-04-20T05:49:34;14.50;;;7.97;;
42094;SDS011;27753;55.724;37.612;2023-04-20T05:52:00;13.55;;;7.97;;
42094;SDS011;27753;55.724;37.612;2023-04-20T05:54:26;14.70;;;7.95;;
42094;SDS011;27753;55.724;37.612;2023-04-20T05:56:55;15.20;;;9.43;;
42094;SDS011;27753;55.724;37.612;2023-04-20T05:59:24;17.65;;;8.10;;
42094;SDS011;27753;55.724;37.612;2023-04-20T06:01:51;15.23;;;8.90;;
42094;SDS011;27753;55.724;37.612;2023-04-20T06:04:17;18.92;;;8.88;;
42094;SDS011;27753;55.724;37.612;2023-04-20T06:06:44;18.23;;;8.97;;
42094;SDS011;27753;55.724;37.612;2023-04-20T06:09:10;14.23;;;7.93;;
42094;SDS011;27753;55.724;37.612;2023-04-20T06:11:36;15.63;;;7.75;;
42094;SDS011;27753;55.724;37.612;2023-04-20T06:14:11;20.25;;;8.27;;
42094;SDS011;27753;55.724;37.612;2023-04-20T06:16:38;12.45;;;8.15;;
42094;SDS011;27753;55.724;37.612;2023-04-20T06:19:04;13.88;;;7.70;;
42094;SDS011;27753;55.724;37.612;2023-04-20T06:21:34;13.65;;;8.82;;
42094;SDS011;27753;55.724;37.612;2023-04-20T06:24:00;11.25;;;7.82;;
42094;SDS011;27753;55.724;37.612;2023-04-20T06:26:32;12.00;;;6.85;;
42094;SDS011;27753;55.724;37.612;2023-04-20T06:28:58;11.73;;;7.25;;
42094;SDS011;27753;55.724;37.612;2023-04-20T06:31:24;11.90;;;6.22;;
42094;SDS011;27753;55.724;37.612;2023-04-20T06:33:55;13.40;;;7.53;;
42094;SDS011;27753;55.724;37.612;2023-04-20T06:36:21;15.95;;;8.55;;
42094;SDS011;27753;55.724;37.612;2023-04-20T06:38:47;12.73;;;8.30;;
42094;SDS011;27753;55.724;37.612;2023-04-20T06:41:19;14.90;;;7.15;;
42094;SDS011;27753;55.724;37.612;2023-04-20T06:43:45;8.98;;;7.32;;
42094;SDS011;27753;55.724;37.612;2023-04-20T06:46:11;12.10;;;7.78;;
42094;SDS011;27753;55.724;37.612;2023-04-20T06:48:37;11.23;;;6.37;;
42094;SDS011;27753;55.724;37.612;2023-04-20T06:51:03;13.98;;;6.25;;
42094;SDS011;27753;55.724;37.612;2023-04-20T06:53:29;16.15;;;6.50;;
42094;SDS011;27753;55.724;37.612;2023-04-20T06:55:55;8.82;;;7.55;;
42094;SDS011;27753;55.724;37.612;2023-04-20T06:58:21;10.52;;;5.80;;
42094;SDS011;27753;55.724;37.612;2023-04-20T07:00:47;7.77;;;5.50;;
42094;SDS011;27753;55.724;37.612;2023-04-20T07:03:13;8.77;;;6.03;;
42094;SDS011;27753;55.724;37.612;2023-04-20T07:05:41;8.27;;;5.40;;
42094;SDS011;27753;55.724;37.612;2023-04-20T07:08:07;12.88;;;6.13;;
42094;SDS011;27753;55.724;37.612;2023-04-20T07:10:36;9.77;;;5.67;;
42094;SDS011;27753;55.724;37.612;2023-04-20T07:13:02;7.40;;;5.38;;
42094;SDS011;27753;55.724;37.612;2023-04-20T07:15:29;14.48;;;5.93;;
42094;SDS011;27753;55.724;37.612;2023-04-20T07:17:55;8.98;;;5.20;;
42094;SDS011;27753;55.724;37.612;2023-04-20T07:20:21;16.20;;;6.30;;
42094;SDS011;27753;55.724;37.612;2023-04-20T07:22:49;19.58;;;5.63;;
42094;SDS011;27753;55.724;37.612;2023-04-20T07:25:18;8.02;;;5.88;;
42094;SDS011;27753;55.724;37.612;2023-04-20T07:27:47;9.93;;;5.55;;
42094;SDS011;27753;55.724;37.612;2023-04-20T07:30:19;11.30;;;6.22;;
42094;SDS011;27753;55.724;37.612;2023-04-20T07:32:45;15.07;;;5.30;;
42094;SDS011;27753;55.724;37.612;2023-04-20T07:35:16;8.90;;;5.05;;
42094;SDS011;27753;55.724;37.612;2023-04-20T07:37:42;7.40;;;4.80;;
42094;SDS011;27753;55.724;37.612;2023-04-20T07:40:08;9.40;;;6.10;;
42094;SDS011;27753;55.724;37.612;2023-04-20T07:42:34;6.55;;;4.82;;
42094;SDS011;27753;55.724;37.612;2023-04-20T07:45:03;8.30;;;4.68;;
42094;SDS011;27753;55.724;37.612;2023-04-20T07:47:32;6.82;;;4.70;;
42094;SDS011;27753;55.724;37.612;2023-04-20T07:49:58;4.95;;;4.20;;
42094;SDS011;27753;55.724;37.612;2023-04-20T07:52:24;7.13;;;4.97;;
42094;SDS011;27753;55.724;37.612;2023-04-20T07:54:50;8.37;;;4.83;;
42094;SDS011;27753;55.724;37.612;2023-04-20T07:57:22;8.07;;;4.22;;
42094;SDS011;27753;55.724;37.612;2023-04-20T07:59:48;7.55;;;4.38;;
42094;SDS011;27753;55.724;37.612;2023-04-20T08:02:14;8.98;;;4.95;;
42094;SDS011;27753;55.724;37.612;2023-04-20T08:04:41;19.05;;;6.38;;
42094;SDS011;27753;55.724;37.612;2023-04-20T08:07:08;10.07;;;4.38;;
42094;SDS011;27753;55.724;37.612;2023-04-20T08:09:35;6.40;;;4.60;;
42094;SDS011;27753;55.724;37.612;2023-04-20T08:12:01;18.83;;;6.60;;
42094;SDS011;27753;55.724;37.612;2023-04-20T08:14:27;11.02;;;5.22;;
42094;SDS011;27753;55.724;37.612;2023-04-20T08:16:53;10.35;;;5.03;;
42094;SDS011;27753;55.724;37.612;2023-04-20T08:19:19;14.25;;;4.60;;
42094;SDS011;27753;55.724;37.612;2023-04-20T08:21:45;21.55;;;5.53;;
42094;SDS011;27753;55.724;37.612;2023-04-20T08:24:11;8.88;;;5.40;;
42094;SDS011;27753;55.724;37.612;2023-04-20T08:26:37;9.65;;;4.75;;
42094;SDS011;27753;55.724;37.612;2023-04-20T08:29:04;24.00;;;6.45;;
42094;SDS011;27753;55.724;37.612;2023-04-20T08:31:30;10.20;;;4.78;;
42094;SDS011;27753;55.724;37.612;2023-04-20T08:33:57;8.10;;;5.30;;
42094;SDS011;27753;55.724;37.612;2023-04-20T08:36:23;7.90;;;4.50;;
42094;SDS011;27753;55.724;37.612;2023-04-20T08:39:18;4.47;;;4.03;;
42094;SDS011;27753;55.724;37.612;2023-04-20T08:41:39;5.30;;;4.43;;
42094;SDS011;27753;55.724;37.612;2023-04-20T08:44:06;8.88;;;5.40;;
42094;SDS011;27753;55.724;37.612;2023-04-20T08:46:32;7.63;;;3.97;;
42094;SDS011;27753;55.724;37.612;2023-04-20T08:49:02;8.68;;;6.00;;
42094;SDS011;27753;55.724;37.612;2023-04-20T08:51:35;13.65;;;4.55;;
42094;SDS011;27753;55.724;37.612;2023-04-20T08:54:05;12.50;;;4.40;;
42094;SDS011;27753;55.724;37.612;2023-04-20T08:56:32;9.07;;;6.47;;
42094;SDS011;27753;55.724;37.612;2023-04-20T08:58:58;8.30;;;4.15;;
42094;SDS011;27753;55.724;37.612;2023-04-20T09:01:27;8.13;;;3.72;;
42094;SDS011;27753;55.724;37.612;2023-04-20T09:03:53;12.82;;;4.95;;
42094;SDS011;27753;55.724;37.612;2023-04-20T09:06:19;10.23;;;4.63;;
42094;SDS011;27753;55.724;37.612;2023-04-20T09:08:47;5.88;;;4.55;;
42094;SDS011;27753;55.724;37.612;2023-04-20T09:11:25;6.85;;;4.25;;
42094;SDS011;27753;55.724;37.612;2023-04-20T09:14:03;6.72;;;3.97;;
42094;SDS011;27753;55.724;37.612;2023-04-20T09:16:37;4.57;;;4.18;;
42094;SDS011;27753;55.724;37.612;2023-04-20T09:21:46;8.57;;;4.53;;
42094;SDS011;27753;55.724;37.612;2023-04-20T09:24:18;8.15;;;4.25;;
42094;SDS011;27753;55.724;37.612;2023-04-20T09:26:48;7.70;;;4.13;;
42094;SDS011;27753;55.724;37.612;2023-04-20T09:29:21;5.47;;;3.73;;
42094;SDS011;27753;55.724;37.612;2023-04-20T09:31:49;7.05;;;3.90;;
42094;SDS011;27753;55.724;37.612;2023-04-20T09:34:16;7.10;;;4.05;;
42094;SDS011;27753;55.724;37.612;2023-04-20T09:36:44;5.57;;;4.38;;
42094;SDS011;27753;55.724;37.612;2023-04-20T09:39:12;8.18;;;5.05;;
42094;SDS011;27753;55.724;37.612;2023-04-20T09:41:41;9.20;;;5.00;;
42094;SDS011;27753;55.724;37.612;2023-04-20T09:44:07;11.38;;;6.13;;
42094;SDS011;27753;55.724;37.612;2023-04-20T09:46:34;8.23;;;4.65;;
42094;SDS011;27753;55.724;37.612;2023-04-20T09:49:04;5.55;;;4.78;;
42094;SDS011;27753;55.724;37.612;2023-04-20T09:51:32;8.57;;;5.07;;
42094;SDS011;27753;55.724;37.612;2023-04-20T09:54:00;8.50;;;4.82;;
42094;SDS011;27753;55.724;37.612;2023-04-20T09:56:27;10.70;;;6.68;;
42094;SDS011;27753;55.724;37.612;2023-04-20T09:58:54;12.45;;;7.05;;
42094;SDS011;27753;55.724;37.612;2023-04-20T10:01:21;8.80;;;5.57;;
42094;SDS011;27753;55.724;37.612;2023-04-20T10:03:50;7.45;;;4.75;;
42094;SDS011;27753;55.724;37.612;2023-04-20T10:06:21;7.82;;;5.30;;
42094;SDS011;27753;55.724;37.612;2023-04-20T10:08:47;9.80;;;4.88;;
42094;SDS011;27753;55.724;37.612;2023-04-20T10:13:53;8.00;;;4.38;;
42094;SDS011;27753;55.724;37.612;2023-04-20T10:16:20;10.25;;;4.47;;
42094;SDS011;27753;55.724;37.612;2023-04-20T10:18:59;12.43;;;5.80;;
42094;SDS011;27753;55.724;37.612;2023-04-20T10:21:27;8.43;;;4.53;;
42094;SDS011;27753;55.724;37.612;2023-04-20T10:23:54;8.07;;;5.60;;
42094;SDS011;27753;55.724;37.612;2023-04-20T10:26:22;6.93;;;4.25;;
42094;SDS011;27753;55.724;37.612;2023-04-20T10:28:59;11.60;;;5.45;;
42094;SDS011;27753;55.724;37.612;2023-04-20T10:31:33;10.10;;;4.97;;
42094;SDS011;27753;55.724;37.612;2023-04-20T10:34:04;9.68;;;5.50;;
42094;SDS011;27753;55.724;37.612;2023-04-20T10:36:31;11.43;;;5.07;;
42094;SDS011;27753;55.724;37.612;2023-04-20T10:39:12;17.13;;;5.68;;
42094;SDS011;27753;55.724;37.612;2023-04-20T10:41:52;9.27;;;5.75;;
42094;SDS011;27753;55.724;37.612;2023-04-20T10:44:20;11.43;;;5.10;;
42094;SDS011;27753;55.724;37.612;2023-04-20T10:46:49;5.65;;;4.32;;
42094;SDS011;27753;55.724;37.612;2023-04-20T10:49:16;9.43;;;4.78;;
42094;SDS011;27753;55.724;37.612;2023-04-20T10:51:48;12.33;;;5.73;;
42094;SDS011;27753;55.724;37.612;2023-04-20T10:54:18;6.13;;;4.22;;
42094;SDS011;27753;55.724;37.612;2023-04-20T10:59:40;9.30;;;5.00;;
42094;SDS011;27753;55.724;37.612;2023-04-20T11:02:08;7.90;;;5.03;;
42094;SDS011;27753;55.724;37.612;2023-04-20T11:04:36;5.50;;;4.63;;
42094;SDS011;27753;55.724;37.612;2023-04-20T11:07:05;14.20;;;5.32;;
42094;SDS011;27753;55.724;37.612;2023-04-20T11:09:35;13.85;;;5.13;;
42094;SDS011;27753;55.724;37.612;2023-04-20T11:14:55;4.38;;;3.90;;
42094;SDS011;27753;55.724;37.612;2023-04-20T11:17:30;6.88;;;4.45;;
42094;SDS011;27753;55.724;37.612;2023-04-20T11:20:33;6.75;;;4.80;;
42094;SDS011;27753;55.724;37.612;2023-04-20T11:22:55;14.75;;;5.82;;
42094;SDS011;27753;55.724;37.612;2023-04-20T11:25:23;9.52;;;4.70;;
42094;SDS011;27753;55.724;37.612;2023-04-20T11:27:49;4.95;;;4.15;;
42094;SDS011;27753;55.724;37.612;2023-04-20T11:30:15;10.13;;;5.18;;
42094;SDS011;27753;55.724;37.612;2023-04-20T11:32:41;10.88;;;5.65;;
42094;SDS011;27753;55.724;37.612;2023-04-20T11:35:08;7.90;;;5.25;;
42094;SDS011;27753;55.724;37.612;2023-04-20T11:37:47;13.70;;;5.32;;
42094;SDS011;27753;55.724;37.612;2023-04-20T11:40:17;12.68;;;6.07;;
42094;SDS011;27753;55.724;37.612;2023-04-20T11:42:43;12.68;;;6.03;;
42094;SDS011;27753;55.724;37.612;2023-04-20T11:45:10;18.87;;;5.83;;
42094;SDS011;27753;55.724;37.612;2023-04-20T11:47:37;17.08;;;5.80;;
42094;SDS011;27753;55.724;37.612;2023-04-20T11:50:05;18.17;;;7.13;;
42094;SDS011;27753;55.724;37.612;2023-04-20T11:52:31;12.43;;;6.00;;
42094;SDS011;27753;55.724;37.612;2023-04-20T11:54:57;18.30;;;6.90;;
42094;SDS011;27753;55.724;37.612;2023-04-20T11:57:24;14.48;;;6.22;;
42094;SDS011;27753;55.724;37.612;2023-04-20T11:59:50;12.73;;;5.75;;
42094;SDS011;27753;55.724;37.612;2023-04-20T12:02:16;12.60;;;6.18;;
42094;SDS011;27753;55.724;37.612;2023-04-20T12:04:41;9.88;;;6.25;;
42094;SDS011;27753;55.724;37.612;2023-04-20T12:07:07;7.05;;;5.53;;
42094;SDS011;27753;55.724;37.612;2023-04-20T12:09:33;6.30;;;4.88;;
42094;SDS011;27753;55.724;37.612;2023-04-20T12:12:02;11.07;;;5.93;;
42094;SDS011;27753;55.724;37.612;2023-04-20T12:14:30;7.72;;;4.90;;
42094;SDS011;27753;55.724;37.612;2023-04-20T12:19:24;11.33;;;5.93;;
42094;SDS011;27753;55.724;37.612;2023-04-20T12:21:49;11.10;;;6.13;;
42094;SDS011;27753;55.724;37.612;2023-04-20T12:24:15;12.23;;;5.03;;
42094;SDS011;27753;55.724;37.612;2023-04-20T12:26:41;10.48;;;5.40;;
42094;SDS011;27753;55.724;37.612;2023-04-20T12:29:07;10.05;;;5.22;;
42094;SDS011;27753;55.724;37.612;2023-04-20T12:31:33;33.00;;;7.50;;
42094;SDS011;27753;55.724;37.612;2023-04-20T12:34:00;8.00;;;5.33;;
42094;SDS011;27753;55.724;37.612;2023-04-20T12:36:26;9.20;;;5.68;;
42094;SDS011;27753;55.724;37.612;2023-04-20T12:38:52;9.60;;;5.45;;
42094;SDS011;27753;55.724;37.612;2023-04-20T12:41:20;9.07;;;5.22;;
42094;SDS011;27753;55.724;37.612;2023-04-20T12:46:16;8.55;;;5.43;;
42094;SDS011;27753;55.724;37.612;2023-04-20T12:48:42;12.85;;;7.03;;
42094;SDS011;27753;55.724;37.612;2023-04-20T12:51:11;15.13;;;5.72;;
42094;SDS011;27753;55.724;37.612;2023-04-20T12:53:38;9.52;;;5.28;;
42094;SDS011;27753;55.724;37.612;2023-04-20T12:56:04;11.35;;;5.10;;
42094;SDS011;27753;55.724;37.612;2023-04-20T12:58:30;13.80;;;6.20;;
42094;SDS011;27753;55.724;37.612;2023-04-20T13:00:57;7.57;;;5.28;;
42094;SDS011;27753;55.724;37.612;2023-04-20T13:03:23;8.57;;;5.40;;
42094;SDS011;27753;55.724;37.612;2023-04-20T13:05:49;12.40;;;5.78;;
42094;SDS011;27753;55.724;37.612;2023-04-20T13:08:15;10.55;;;5.82;;
42094;SDS011;27753;55.724;37.612;2023-04-20T13:10:41;11.95;;;5.45;;
42094;SDS011;27753;55.724;37.612;2023-04-20T13:13:09;7.88;;;5.43;;
42094;SDS011;27753;55.724;37.612;2023-04-20T13:15:35;12.32;;;5.32;;
42094;SDS011;27753;55.724;37.612;2023-04-20T13:18:01;8.68;;;5.60;;
42094;SDS011;27753;55.724;37.612;2023-04-20T13:20:27;9.27;;;4.80;;
42094;SDS011;27753;55.724;37.612;2023-04-20T13:23:02;7.20;;;4.85;;
42094;SDS011;27753;55.724;37.612;2023-04-20T13:25:29;11.07;;;5.25;;
42094;SDS011;27753;55.724;37.612;2023-04-20T13:27:59;7.45;;;4.68;;
42094;SDS011;27753;55.724;37.612;2023-04-20T13:30:26;8.07;;;5.10;;
42094;SDS011;27753;55.724;37.612;2023-04-20T13:32:52;12.52;;;5.00;;
42094;SDS011;27753;55.724;37.612;2023-04-20T13:35:18;7.55;;;5.43;;
42094;SDS011;27753;55.724;37.612;2023-04-20T13:37:44;13.60;;;5.63;;
42094;SDS011;27753;55.724;37.612;2023-04-20T13:40:11;7.05;;;4.30;;
42094;SDS011;27753;55.724;37.612;2023-04-20T13:42:37;14.93;;;5.75;;
42094;SDS011;27753;55.724;37.612;2023-04-20T13:45:03;7.30;;;4.88;;
42094;SDS011;27753;55.724;37.612;2023-04-20T13:47:29;7.45;;;4.97;;
42094;SDS011;27753;55.724;37.612;2023-04-20T13:49:55;9.68;;;5.10;;
42094;SDS011;27753;55.724;37.612;2023-04-20T13:52:21;14.73;;;6.22;;
42094;SDS011;27753;55.724;37.612;2023-04-20T13:54:48;11.35;;;5.32;;
42094;SDS011;27753;55.724;37.612;2023-04-20T13:57:23;13.10;;;6.00;;
42094;SDS011;27753;55.724;37.612;2023-04-20T13:59:55;11.93;;;5.35;;
42094;SDS011;27753;55.724;37.612;2023-04-20T14:02:21;10.77;;;5.65;;
42094;SDS011;27753;55.724;37.612;2023-04-20T14:04:48;12.35;;;5.55;;
42094;SDS011;27753;55.724;37.612;2023-04-20T14:07:15;13.75;;;6.25;;
42094;SDS011;27753;55.724;37.612;2023-04-20T14:09:40;13.43;;;6.20;;
42094;SDS011;27753;55.724;37.612;2023-04-20T14:12:08;21.88;;;5.88;;
42094;SDS011;27753;55.724;37.612;2023-04-20T14:14:35;10.75;;;5.82;;
42094;SDS011;27753;55.724;37.612;2023-04-20T14:17:01;9.68;;;5.82;;
42094;SDS011;27753;55.724;37.612;2023-04-20T14:19:27;9.95;;;5.75;;
42094;SDS011;27753;55.724;37.612;2023-04-20T14:21:53;13.00;;;6.00;;
42094;SDS011;27753;55.724;37.612;2023-04-20T14:24:19;10.00;;;6.25;;
42094;SDS011;27753;55.724;37.612;2023-04-20T14:26:45;10.20;;;6.07;;
42094;SDS011;27753;55.724;37.612;2023-04-20T14:29:10;6.78;;;4.75;;
42094;SDS011;27753;55.724;37.612;2023-04-20T14:31:36;9.88;;;5.65;;
42094;SDS011;27753;55.724;37.612;2023-04-20T14:34:02;7.60;;;5.47;;
42094;SDS011;27753;55.724;37.612;2023-04-20T14:36:28;7.90;;;5.60;;
42094;SDS011;27753;55.724;37.612;2023-04-20T14:38:54;9.82;;;6.45;;
42094;SDS011;27753;55.724;37.612;2023-04-20T14:41:20;16.65;;;5.93;;
42094;SDS011;27753;55.724;37.612;2023-04-20T14:43:46;8.73;;;5.88;;
42094;SDS011;27753;55.724;37.612;2023-04-20T14:46:12;6.82;;;5.47;;